RYR82CM EBCI-LCPH
Flight info
| Callsign | RYR82CM |
|---|---|
| Flight time | N/A |
| Altitude | 35000 |
| Route | SOPOK Y863 OGLOR DCT EMGOD L607 ULNOK DCT VIBOM DCT NOMBO DCT RIDAR DCT RADIZ/N0437F370 DCT LUMUS DCT GORPA DCT DEVUL DCT REMSO DCT MEDUX UM867 KOGAT DCT TALAS DCT TSL UL617 AGISA DCT USINI UL995 RDS DCT TOSKA DCT TOBAL |
| Aircraft | B738/M-SDE2E3FGHIRWXY/LB1 |
Departure
| Time | 2026-05-05 11:40 |
|---|---|
| Airport | Brussels South Charleroi Airport (EBCI) |
Arrival
| Time | N/A |
|---|---|
| Airport | Paphos International Airport (LCPH) |
| Time | Latitude | Longitude | Altitude | Speed | Heading |
|---|---|---|---|---|---|
| 2026-05-05 11:15 | 50.46959 | 4.47399 | 622 ft | 0 kts | 335° |
| 2026-05-05 11:33 | 50.46942 | 4.47413 | 622 ft | 4 kts | 327° |
| 2026-05-05 11:33 | 50.46923 | 4.47439 | 622 ft | 4 kts | 299° |
| 2026-05-05 11:33 | 50.46919 | 4.47472 | 622 ft | 2 kts | 246° |
| 2026-05-05 11:34 | 50.46919 | 4.47473 | 622 ft | 0 kts | 245° |
| 2026-05-05 11:37 | 50.46895 | 4.47389 | 622 ft | 16 kts | 245° |
| 2026-05-05 11:37 | 50.46815 | 4.47344 | 622 ft | 2 kts | 165° |
| 2026-05-05 11:38 | 50.46782 | 4.47350 | 622 ft | 10 kts | 202° |
| 2026-05-05 11:38 | 50.46731 | 4.47227 | 622 ft | 16 kts | 245° |
| 2026-05-05 11:38 | 50.46688 | 4.47078 | 622 ft | 15 kts | 246° |
| 2026-05-05 11:38 | 50.46642 | 4.46912 | 622 ft | 20 kts | 246° |
| 2026-05-05 11:39 | 50.46506 | 4.46899 | 622 ft | 29 kts | 172° |
| 2026-05-05 11:39 | 50.46411 | 4.46740 | 622 ft | 35 kts | 248° |
| 2026-05-05 11:39 | 50.46212 | 4.46056 | 622 ft | 103 kts | 245° |
| 2026-05-05 11:39 | 50.45826 | 4.44734 | 634 ft | 160 kts | 246° |
| 2026-05-05 11:40 | 50.45321 | 4.43061 | 1105 ft | 177 kts | 245° |
| 2026-05-05 11:40 | 50.44797 | 4.41343 | 1985 ft | 172 kts | 247° |
| 2026-05-05 11:40 | 50.44300 | 4.39589 | 2618 ft | 183 kts | 248° |
| 2026-05-05 11:40 | 50.43743 | 4.37602 | 2986 ft | 210 kts | 248° |
| 2026-05-05 11:41 | 50.43124 | 4.35415 | 3305 ft | 234 kts | 247° |
| 2026-05-05 11:41 | 50.42432 | 4.32981 | 3701 ft | 252 kts | 247° |
| 2026-05-05 11:41 | 50.41706 | 4.30431 | 4363 ft | 262 kts | 246° |
| 2026-05-05 11:41 | 50.41015 | 4.27703 | 4965 ft | 276 kts | 257° |
| 2026-05-05 11:42 | 50.40958 | 4.24689 | 5754 ft | 279 kts | 282° |
| 2026-05-05 11:42 | 50.41693 | 4.21898 | 6597 ft | 279 kts | 306° |
| 2026-05-05 11:42 | 50.43086 | 4.19805 | 7428 ft | 278 kts | 330° |
| 2026-05-05 11:42 | 50.44858 | 4.18625 | 8269 ft | 279 kts | 343° |
| 2026-05-05 11:43 | 50.46763 | 4.18109 | 9066 ft | 279 kts | 4° |
| 2026-05-05 11:43 | 50.48636 | 4.18833 | 9841 ft | 280 kts | 27° |
| 2026-05-05 11:43 | 50.50172 | 4.20712 | 10541 ft | 286 kts | 51° |
| 2026-05-05 11:43 | 50.51156 | 4.23499 | 10944 ft | 304 kts | 72° |
| 2026-05-05 11:44 | 50.51412 | 4.26891 | 11240 ft | 325 kts | 93° |
| 2026-05-05 11:44 | 50.50940 | 4.30440 | 11724 ft | 338 kts | 106° |
| 2026-05-05 11:44 | 50.50314 | 4.34042 | 12445 ft | 343 kts | 104° |
| 2026-05-05 11:44 | 50.49700 | 4.37736 | 13159 ft | 348 kts | 104° |
| 2026-05-05 11:45 | 50.49081 | 4.41427 | 13883 ft | 352 kts | 105° |
| 2026-05-05 11:45 | 50.48449 | 4.45161 | 14594 ft | 356 kts | 105° |
| 2026-05-05 11:45 | 50.47805 | 4.48938 | 15276 ft | 360 kts | 105° |
| 2026-05-05 11:45 | 50.47154 | 4.52745 | 15942 ft | 364 kts | 105° |
| 2026-05-05 11:46 | 50.46493 | 4.56592 | 16605 ft | 367 kts | 105° |
| 2026-05-05 11:46 | 50.45821 | 4.60492 | 17243 ft | 371 kts | 106° |
| 2026-05-05 11:46 | 50.45144 | 4.64408 | 17864 ft | 375 kts | 106° |
| 2026-05-05 11:46 | 50.44457 | 4.68373 | 18486 ft | 378 kts | 106° |
| 2026-05-05 11:47 | 50.43766 | 4.72355 | 19090 ft | 381 kts | 106° |
| 2026-05-05 11:47 | 50.43061 | 4.76402 | 19680 ft | 385 kts | 107° |
| 2026-05-05 11:47 | 50.42362 | 4.80455 | 20249 ft | 388 kts | 106° |
| 2026-05-05 11:47 | 50.41686 | 4.84579 | 20799 ft | 392 kts | 106° |
| 2026-05-05 11:48 | 50.40282 | 4.92914 | 21858 ft | 399 kts | 107° |
| 2026-05-05 11:48 | 50.39557 | 4.97133 | 22366 ft | 402 kts | 107° |
| 2026-05-05 11:48 | 50.38823 | 5.01378 | 22853 ft | 406 kts | 107° |
| 2026-05-05 11:49 | 50.38077 | 5.05669 | 23321 ft | 409 kts | 107° |
| 2026-05-05 11:49 | 50.37324 | 5.09981 | 23783 ft | 413 kts | 107° |
| 2026-05-05 11:49 | 50.36562 | 5.14327 | 24229 ft | 416 kts | 107° |
| 2026-05-05 11:49 | 50.35789 | 5.18725 | 24659 ft | 420 kts | 108° |
| 2026-05-05 11:50 | 50.35011 | 5.23141 | 25086 ft | 423 kts | 108° |
| 2026-05-05 11:50 | 50.34225 | 5.27591 | 25498 ft | 426 kts | 108° |
| 2026-05-05 11:50 | 50.33456 | 5.32095 | 25898 ft | 430 kts | 108° |
| 2026-05-05 11:50 | 50.32674 | 5.36629 | 26302 ft | 432 kts | 108° |
| 2026-05-05 11:51 | 50.31871 | 5.41166 | 26699 ft | 435 kts | 109° |
| 2026-05-05 11:51 | 50.31050 | 5.45739 | 27067 ft | 437 kts | 109° |
| 2026-05-05 11:51 | 50.30220 | 5.50333 | 27440 ft | 440 kts | 109° |
| 2026-05-05 11:51 | 50.29383 | 5.54946 | 27804 ft | 442 kts | 109° |
| 2026-05-05 11:52 | 50.28535 | 5.59615 | 28173 ft | 444 kts | 110° |
| 2026-05-05 11:52 | 50.27679 | 5.64316 | 28515 ft | 447 kts | 110° |
| 2026-05-05 11:52 | 50.26828 | 5.68991 | 28850 ft | 449 kts | 110° |
| 2026-05-05 11:52 | 50.25971 | 5.73709 | 29190 ft | 451 kts | 110° |
| 2026-05-05 11:53 | 50.25115 | 5.78425 | 29539 ft | 452 kts | 110° |
| 2026-05-05 11:53 | 50.24316 | 5.83193 | 29833 ft | 456 kts | 108° |
| 2026-05-05 11:53 | 50.23537 | 5.88008 | 30127 ft | 458 kts | 109° |
| 2026-05-05 11:53 | 50.22729 | 5.92825 | 30415 ft | 459 kts | 110° |
| 2026-05-05 11:54 | 50.22187 | 5.96016 | 30602 ft | 460 kts | 110° |
| 2026-05-05 11:54 | 50.21359 | 6.00847 | 30927 ft | 461 kts | 110° |
| 2026-05-05 11:54 | 50.20527 | 6.05683 | 31300 ft | 460 kts | 110° |
| 2026-05-05 11:54 | 50.19699 | 6.10496 | 31672 ft | 459 kts | 110° |
| 2026-05-05 11:55 | 50.19011 | 6.15378 | 32026 ft | 463 kts | 104° |
| 2026-05-05 11:55 | 50.18670 | 6.20402 | 32368 ft | 468 kts | 98° |
| 2026-05-05 11:55 | 50.18679 | 6.25505 | 32700 ft | 472 kts | 92° |
| 2026-05-05 11:55 | 50.18923 | 6.30615 | 33073 ft | 473 kts | 90° |
| 2026-05-05 11:56 | 50.19264 | 6.35715 | 33360 ft | 473 kts | 89° |
| 2026-05-05 11:56 | 50.19590 | 6.40836 | 33646 ft | 473 kts | 90° |
| 2026-05-05 11:56 | 50.19902 | 6.45954 | 33920 ft | 474 kts | 90° |
| 2026-05-05 11:56 | 50.20209 | 6.51060 | 34217 ft | 474 kts | 90° |
| 2026-05-05 11:57 | 50.20515 | 6.56190 | 34510 ft | 473 kts | 90° |
| 2026-05-05 11:57 | 50.20821 | 6.61304 | 34815 ft | 473 kts | 90° |
| 2026-05-05 11:57 | 50.21002 | 6.66394 | 35117 ft | 469 kts | 95° |
| 2026-05-05 11:57 | 50.20947 | 6.71481 | 35370 ft | 467 kts | 97° |
| 2026-05-05 11:58 | 50.20809 | 6.76531 | 35643 ft | 467 kts | 97° |
| 2026-05-05 11:58 | 50.20684 | 6.81600 | 35907 ft | 467 kts | 97° |
| 2026-05-05 11:58 | 50.20608 | 6.86664 | 36149 ft | 468 kts | 96° |
| 2026-05-05 11:58 | 50.20533 | 6.91738 | 36410 ft | 467 kts | 96° |
| 2026-05-05 11:59 | 50.20437 | 6.96803 | 36658 ft | 467 kts | 96° |
| 2026-05-05 11:59 | 50.20328 | 7.01862 | 36904 ft | 466 kts | 96° |
| 2026-05-05 11:59 | 50.20213 | 7.06920 | 37162 ft | 466 kts | 96° |
| 2026-05-05 11:59 | 50.20096 | 7.11962 | 37390 ft | 466 kts | 96° |
| 2026-05-05 12:00 | 50.19977 | 7.17029 | 37630 ft | 465 kts | 96° |
| 2026-05-05 12:00 | 50.19857 | 7.22069 | 37848 ft | 465 kts | 96° |
| 2026-05-05 12:00 | 50.19702 | 7.27161 | 38058 ft | 464 kts | 98° |
| 2026-05-05 12:00 | 50.19308 | 7.32146 | 38293 ft | 460 kts | 103° |
| 2026-05-05 12:01 | 50.18633 | 7.37016 | 38493 ft | 457 kts | 109° |
| 2026-05-05 12:01 | 50.17741 | 7.41774 | 38687 ft | 456 kts | 112° |
| 2026-05-05 12:01 | 50.16785 | 7.46469 | 38831 ft | 456 kts | 112° |
| 2026-05-05 12:01 | 50.15795 | 7.51192 | 38837 ft | 457 kts | 112° |
| 2026-05-05 12:02 | 50.13793 | 7.60561 | 38846 ft | 454 kts | 112° |
| 2026-05-05 12:02 | 50.11794 | 7.69836 | 38849 ft | 454 kts | 113° |
| 2026-05-05 12:03 | 50.09764 | 7.79218 | 38847 ft | 454 kts | 113° |
| 2026-05-05 12:03 | 50.07607 | 7.88427 | 38846 ft | 450 kts | 118° |
| 2026-05-05 12:04 | 50.04593 | 7.96878 | 38845 ft | 445 kts | 128° |
| 2026-05-05 12:04 | 50.01179 | 8.04826 | 38841 ft | 444 kts | 128° |
| 2026-05-05 12:05 | 49.97716 | 8.12785 | 38841 ft | 444 kts | 129° |
| 2026-05-05 12:05 | 49.94240 | 8.20707 | 38841 ft | 444 kts | 129° |
| 2026-05-05 12:06 | 49.90732 | 8.28675 | 38841 ft | 444 kts | 129° |
| 2026-05-05 12:06 | 49.87245 | 8.36582 | 38836 ft | 444 kts | 129° |
| 2026-05-05 12:07 | 49.83712 | 8.44411 | 38832 ft | 442 kts | 132° |
| 2026-05-05 12:07 | 49.79874 | 8.51798 | 38831 ft | 440 kts | 134° |
| 2026-05-05 12:08 | 49.76016 | 8.59147 | 38832 ft | 440 kts | 133° |
| 2026-05-05 12:08 | 49.72179 | 8.66511 | 38832 ft | 440 kts | 133° |
| 2026-05-05 12:09 | 49.68338 | 8.73888 | 38835 ft | 440 kts | 133° |
| 2026-05-05 12:09 | 49.64549 | 8.81319 | 38836 ft | 440 kts | 132° |
| 2026-05-05 12:10 | 49.60738 | 8.88703 | 38837 ft | 440 kts | 133° |
| 2026-05-05 12:10 | 49.56903 | 8.96026 | 38836 ft | 439 kts | 133° |
| 2026-05-05 12:11 | 49.53058 | 9.03334 | 38835 ft | 439 kts | 133° |
| 2026-05-05 12:11 | 49.49213 | 9.10631 | 38834 ft | 439 kts | 133° |
| 2026-05-05 12:12 | 49.45480 | 9.18076 | 38832 ft | 441 kts | 128° |
| 2026-05-05 12:12 | 49.42121 | 9.25994 | 38825 ft | 443 kts | 127° |
| 2026-05-05 12:13 | 49.38765 | 9.33914 | 38820 ft | 442 kts | 127° |
| 2026-05-05 12:13 | 49.35391 | 9.41793 | 38821 ft | 442 kts | 127° |
| 2026-05-05 12:14 | 49.32002 | 9.49665 | 38819 ft | 442 kts | 128° |
| 2026-05-05 12:14 | 49.28613 | 9.57512 | 38819 ft | 442 kts | 128° |
| 2026-05-05 12:15 | 49.25258 | 9.65403 | 38818 ft | 442 kts | 127° |
| 2026-05-05 12:15 | 49.21944 | 9.73235 | 38817 ft | 442 kts | 127° |
| 2026-05-05 12:16 | 49.18523 | 9.81144 | 38817 ft | 442 kts | 128° |
| 2026-05-05 12:16 | 49.15134 | 9.88901 | 38817 ft | 442 kts | 128° |
| 2026-05-05 12:17 | 49.11717 | 9.96692 | 38817 ft | 442 kts | 128° |
| 2026-05-05 12:17 | 49.08293 | 10.04488 | 38815 ft | 442 kts | 128° |
| 2026-05-05 12:18 | 49.04453 | 10.11733 | 38815 ft | 438 kts | 138° |
| 2026-05-05 12:18 | 49.00163 | 10.18281 | 38813 ft | 436 kts | 139° |
| 2026-05-05 12:19 | 48.95846 | 10.24776 | 38814 ft | 437 kts | 139° |
| 2026-05-05 12:19 | 48.91521 | 10.31284 | 38821 ft | 437 kts | 139° |
| 2026-05-05 12:20 | 48.87209 | 10.37762 | 38821 ft | 437 kts | 139° |
| 2026-05-05 12:20 | 48.82867 | 10.44273 | 38815 ft | 438 kts | 139° |
| 2026-05-05 12:21 | 48.78567 | 10.50867 | 38818 ft | 440 kts | 139° |
| 2026-05-05 12:21 | 48.74235 | 10.57392 | 38818 ft | 439 kts | 139° |
| 2026-05-05 12:22 | 48.69876 | 10.63882 | 38816 ft | 439 kts | 139° |
| 2026-05-05 12:22 | 48.65513 | 10.70355 | 38810 ft | 439 kts | 139° |
| 2026-05-05 12:23 | 48.61116 | 10.76867 | 38810 ft | 440 kts | 139° |
| 2026-05-05 12:23 | 48.56902 | 10.83605 | 38811 ft | 443 kts | 134° |
| 2026-05-05 12:24 | 48.53023 | 10.90844 | 38812 ft | 443 kts | 133° |
| 2026-05-05 12:24 | 48.49143 | 10.98090 | 38814 ft | 444 kts | 133° |
| 2026-05-05 12:25 | 48.45248 | 11.05287 | 38814 ft | 444 kts | 133° |
| 2026-05-05 12:25 | 48.41355 | 11.12438 | 38813 ft | 444 kts | 133° |
| 2026-05-05 12:26 | 48.37405 | 11.19664 | 38812 ft | 444 kts | 133° |
| 2026-05-05 12:26 | 48.33517 | 11.26903 | 38814 ft | 445 kts | 133° |
| 2026-05-05 12:27 | 48.29635 | 11.34062 | 38813 ft | 445 kts | 133° |
| 2026-05-05 12:27 | 48.25712 | 11.41242 | 38805 ft | 445 kts | 133° |
| 2026-05-05 12:28 | 48.21775 | 11.48414 | 38804 ft | 445 kts | 133° |
| 2026-05-05 12:28 | 48.17855 | 11.55532 | 38803 ft | 445 kts | 133° |
| 2026-05-05 12:29 | 48.13862 | 11.62763 | 38801 ft | 446 kts | 133° |
| 2026-05-05 12:29 | 48.09903 | 11.69910 | 38800 ft | 445 kts | 133° |
| 2026-05-05 12:30 | 48.05968 | 11.76997 | 38799 ft | 446 kts | 133° |
| 2026-05-05 12:30 | 48.02006 | 11.84113 | 38799 ft | 446 kts | 133° |
| 2026-05-05 12:31 | 47.98031 | 11.91234 | 38791 ft | 446 kts | 133° |
| 2026-05-05 12:31 | 47.94059 | 11.98331 | 38791 ft | 446 kts | 133° |
| 2026-05-05 12:32 | 47.90075 | 12.05431 | 38790 ft | 446 kts | 134° |
| 2026-05-05 12:32 | 47.86090 | 12.12514 | 38787 ft | 446 kts | 134° |
| 2026-05-05 12:33 | 47.82118 | 12.19604 | 38785 ft | 447 kts | 133° |
| 2026-05-05 12:33 | 47.78785 | 12.25542 | 38787 ft | 446 kts | 134° |
| 2026-05-05 12:34 | 47.74770 | 12.32609 | 38801 ft | 447 kts | 134° |
| 2026-05-05 12:34 | 47.70751 | 12.39652 | 38806 ft | 447 kts | 134° |
| 2026-05-05 12:35 | 47.66724 | 12.46693 | 38803 ft | 448 kts | 134° |
| 2026-05-05 12:35 | 47.62691 | 12.53739 | 38801 ft | 448 kts | 134° |
| 2026-05-05 12:36 | 47.58561 | 12.60552 | 38799 ft | 447 kts | 137° |
| 2026-05-05 12:36 | 47.54281 | 12.67270 | 38800 ft | 448 kts | 136° |
| 2026-05-05 12:37 | 47.49996 | 12.74040 | 38802 ft | 448 kts | 136° |
| 2026-05-05 12:37 | 47.45729 | 12.80790 | 38808 ft | 449 kts | 136° |
| 2026-05-05 12:38 | 47.41463 | 12.87534 | 38815 ft | 449 kts | 136° |
| 2026-05-05 12:38 | 47.37207 | 12.94317 | 38823 ft | 450 kts | 136° |
| 2026-05-05 12:39 | 47.32965 | 13.01101 | 38831 ft | 450 kts | 136° |
| 2026-05-05 12:39 | 47.28726 | 13.07821 | 38838 ft | 450 kts | 136° |
| 2026-05-05 12:40 | 47.24421 | 13.14610 | 38847 ft | 451 kts | 136° |
| 2026-05-05 12:40 | 47.20136 | 13.21346 | 38856 ft | 451 kts | 136° |
| 2026-05-05 12:41 | 47.15836 | 13.28084 | 38866 ft | 451 kts | 136° |
| 2026-05-05 12:41 | 47.11538 | 13.34803 | 38875 ft | 452 kts | 136° |
| 2026-05-05 12:42 | 47.07234 | 13.41514 | 38882 ft | 452 kts | 136° |
| 2026-05-05 12:42 | 47.02919 | 13.48225 | 38899 ft | 452 kts | 136° |
| 2026-05-05 12:43 | 46.98610 | 13.54911 | 38912 ft | 452 kts | 136° |
| 2026-05-05 12:43 | 46.94286 | 13.61602 | 38922 ft | 452 kts | 137° |
| 2026-05-05 12:44 | 46.89953 | 13.68290 | 38930 ft | 452 kts | 137° |
| 2026-05-05 12:44 | 46.85626 | 13.74954 | 38938 ft | 452 kts | 137° |
| 2026-05-05 12:45 | 46.81294 | 13.81611 | 38944 ft | 453 kts | 136° |
| 2026-05-05 12:45 | 46.76967 | 13.88313 | 38950 ft | 453 kts | 137° |
| 2026-05-05 12:46 | 46.72648 | 13.94907 | 38955 ft | 452 kts | 137° |
| 2026-05-05 12:46 | 46.68293 | 14.01521 | 38958 ft | 453 kts | 137° |
| 2026-05-05 12:47 | 46.63925 | 14.08141 | 38963 ft | 453 kts | 137° |
| 2026-05-05 12:47 | 46.59555 | 14.14756 | 38969 ft | 453 kts | 137° |
| 2026-05-05 12:48 | 46.55164 | 14.21333 | 38969 ft | 453 kts | 137° |
| 2026-05-05 12:48 | 46.50753 | 14.27884 | 38973 ft | 453 kts | 138° |
| 2026-05-05 12:49 | 46.46344 | 14.34419 | 38980 ft | 453 kts | 138° |
| 2026-05-05 12:49 | 46.41904 | 14.40984 | 38989 ft | 453 kts | 138° |
| 2026-05-05 12:50 | 46.37487 | 14.47503 | 39000 ft | 453 kts | 138° |
| 2026-05-05 12:50 | 46.33092 | 14.54029 | 39010 ft | 453 kts | 137° |
| 2026-05-05 12:51 | 46.28689 | 14.60587 | 39017 ft | 453 kts | 137° |
| 2026-05-05 12:51 | 46.24292 | 14.67079 | 39017 ft | 453 kts | 137° |
| 2026-05-05 12:52 | 46.19875 | 14.73572 | 39018 ft | 453 kts | 138° |
| 2026-05-05 12:52 | 46.15458 | 14.80043 | 39020 ft | 453 kts | 138° |
| 2026-05-05 12:53 | 46.11037 | 14.86503 | 39019 ft | 453 kts | 138° |
| 2026-05-05 12:53 | 46.06608 | 14.92960 | 39018 ft | 453 kts | 138° |
| 2026-05-05 12:54 | 45.99955 | 15.02634 | 39017 ft | 453 kts | 137° |
| 2026-05-05 12:55 | 45.95524 | 15.09119 | 39018 ft | 455 kts | 138° |
| 2026-05-05 12:55 | 45.91061 | 15.15561 | 39019 ft | 455 kts | 138° |
| 2026-05-05 12:56 | 45.86594 | 15.21979 | 39022 ft | 455 kts | 138° |
| 2026-05-05 12:56 | 45.82118 | 15.28396 | 39022 ft | 455 kts | 138° |
| 2026-05-05 12:57 | 45.77649 | 15.34803 | 39020 ft | 455 kts | 137° |
| 2026-05-05 12:57 | 45.73496 | 15.41596 | 39021 ft | 457 kts | 132° |
| 2026-05-05 12:58 | 45.69445 | 15.48677 | 39024 ft | 457 kts | 133° |
| 2026-05-05 12:58 | 45.65389 | 15.55655 | 39019 ft | 456 kts | 133° |
| 2026-05-05 12:59 | 45.61311 | 15.62619 | 39013 ft | 456 kts | 133° |
| 2026-05-05 12:59 | 45.57236 | 15.69547 | 39009 ft | 456 kts | 133° |
| 2026-05-05 13:00 | 45.51141 | 15.80002 | 39005 ft | 456 kts | 133° |
| 2026-05-05 13:01 | 45.42987 | 15.93862 | 39002 ft | 456 kts | 133° |
| 2026-05-05 13:01 | 45.38892 | 16.00776 | 39002 ft | 456 kts | 133° |
| 2026-05-05 13:02 | 45.34792 | 16.07680 | 39002 ft | 457 kts | 133° |
| 2026-05-05 13:02 | 45.30711 | 16.14608 | 38995 ft | 457 kts | 133° |
| 2026-05-05 13:03 | 45.26595 | 16.21506 | 38994 ft | 458 kts | 133° |
| 2026-05-05 13:03 | 45.22462 | 16.28388 | 38994 ft | 458 kts | 133° |
| 2026-05-05 13:04 | 45.18335 | 16.35244 | 38993 ft | 458 kts | 133° |
| 2026-05-05 13:04 | 45.14190 | 16.42122 | 38991 ft | 458 kts | 133° |
| 2026-05-05 13:05 | 45.10025 | 16.48882 | 38989 ft | 458 kts | 135° |
| 2026-05-05 13:05 | 45.05733 | 16.55615 | 38987 ft | 459 kts | 135° |
| 2026-05-05 13:06 | 45.01455 | 16.62327 | 38983 ft | 459 kts | 135° |
| 2026-05-05 13:06 | 44.97180 | 16.69027 | 38978 ft | 459 kts | 135° |
| 2026-05-05 13:07 | 44.92903 | 16.75718 | 38976 ft | 459 kts | 135° |
| 2026-05-05 13:07 | 44.88632 | 16.82431 | 38978 ft | 460 kts | 134° |
| 2026-05-05 13:08 | 44.84385 | 16.89164 | 38975 ft | 460 kts | 134° |
| 2026-05-05 13:08 | 44.80117 | 16.95867 | 38974 ft | 460 kts | 135° |
| 2026-05-05 13:09 | 44.75833 | 17.02560 | 38972 ft | 460 kts | 135° |
| 2026-05-05 13:09 | 44.71541 | 17.09243 | 38972 ft | 460 kts | 135° |
| 2026-05-05 13:10 | 44.67243 | 17.15914 | 38974 ft | 460 kts | 135° |
| 2026-05-05 13:10 | 44.62942 | 17.22575 | 38976 ft | 461 kts | 135° |
| 2026-05-05 13:11 | 44.58623 | 17.29246 | 38980 ft | 462 kts | 135° |
| 2026-05-05 13:11 | 44.54304 | 17.35901 | 38981 ft | 462 kts | 135° |
| 2026-05-05 13:12 | 44.50707 | 17.41431 | 38984 ft | 462 kts | 135° |
| 2026-05-05 13:12 | 44.46375 | 17.48076 | 38987 ft | 462 kts | 135° |
| 2026-05-05 13:13 | 44.41328 | 17.55800 | 38990 ft | 463 kts | 135° |
| 2026-05-05 13:13 | 44.36978 | 17.62439 | 38993 ft | 463 kts | 135° |
| 2026-05-05 13:14 | 44.33330 | 17.67994 | 38995 ft | 463 kts | 135° |
| 2026-05-05 13:14 | 44.28967 | 17.74625 | 38998 ft | 463 kts | 135° |
| 2026-05-05 13:15 | 44.24603 | 17.81241 | 39000 ft | 464 kts | 135° |
| 2026-05-05 13:15 | 44.20227 | 17.87859 | 39004 ft | 464 kts | 135° |
| 2026-05-05 13:16 | 44.15846 | 17.94472 | 39009 ft | 464 kts | 135° |
| 2026-05-05 13:16 | 44.11461 | 18.01072 | 39012 ft | 464 kts | 135° |
| 2026-05-05 13:17 | 44.07070 | 18.07667 | 39015 ft | 464 kts | 135° |
| 2026-05-05 13:17 | 44.02682 | 18.14242 | 39018 ft | 464 kts | 135° |
| 2026-05-05 13:18 | 43.98289 | 18.20809 | 39020 ft | 464 kts | 135° |
| 2026-05-05 13:18 | 43.93883 | 18.27381 | 39021 ft | 465 kts | 135° |
| 2026-05-05 13:19 | 43.89475 | 18.33939 | 39023 ft | 465 kts | 135° |
| 2026-05-05 13:19 | 43.85064 | 18.40487 | 39023 ft | 465 kts | 135° |
| 2026-05-05 13:20 | 43.80673 | 18.46991 | 39022 ft | 465 kts | 135° |
| 2026-05-05 13:20 | 43.76247 | 18.53531 | 39025 ft | 466 kts | 135° |
| 2026-05-05 13:21 | 43.71781 | 18.60115 | 39026 ft | 466 kts | 135° |
| 2026-05-05 13:21 | 43.67389 | 18.66623 | 39028 ft | 467 kts | 135° |
| 2026-05-05 13:22 | 43.62909 | 18.73214 | 39031 ft | 468 kts | 135° |
| 2026-05-05 13:22 | 43.58470 | 18.79694 | 39038 ft | 468 kts | 135° |
| 2026-05-05 13:23 | 43.53990 | 18.86216 | 39041 ft | 469 kts | 135° |